createdAt,value
2022-08-25T00:01:51.921Z,101724.44
2022-08-25T00:04:22.197Z,101728.81
2022-08-25T00:06:51.063Z,101725.22
2022-08-25T00:09:21.445Z,101725.28
2022-08-25T00:11:50.383Z,101715.50
2022-08-25T00:14:20.909Z,101720.91
2022-08-25T00:16:49.545Z,101713.22
2022-08-25T00:19:22.797Z,101724.69
2022-08-25T00:21:51.347Z,101720.28
2022-08-25T00:24:21.736Z,101725.06
2022-08-25T00:26:52.915Z,101711.84
2022-08-25T00:29:21.867Z,101722.59
2022-08-25T00:31:50.014Z,101724.44
2022-08-25T00:34:23.557Z,101726.41
2022-08-25T00:36:51.968Z,101727.44
2022-08-25T00:39:21.055Z,101723.03
2022-08-25T00:41:51.125Z,101721.97
2022-08-25T00:44:20.035Z,101725.66
2022-08-25T00:46:50.401Z,101721.28
2022-08-25T00:49:25.362Z,101726.13
2022-08-25T00:51:58.335Z,101718.97
2022-08-25T00:54:29.903Z,101718.16
2022-08-25T00:57:00.411Z,101713.00
2022-08-25T00:59:28.905Z,101720.78
2022-08-25T01:01:58.864Z,101722.69
2022-08-25T01:04:28.591Z,101721.75
2022-08-25T01:06:59.252Z,101722.69
2022-08-25T01:09:29.609Z,101719.41
2022-08-25T01:11:57.666Z,101726.81
2022-08-25T01:14:27.257Z,101732.31
2022-08-25T01:16:55.720Z,101718.88
2022-08-25T01:19:23.776Z,101720.69
2022-08-25T01:21:54.651Z,101718.13
2022-08-25T01:24:29.653Z,101718.28
2022-08-25T01:26:58.141Z,101722.00
2022-08-25T01:29:26.392Z,101719.38
2022-08-25T01:31:57.756Z,101727.50
2022-08-25T01:34:28.366Z,101721.38
2022-08-25T01:36:59.101Z,101718.81
2022-08-25T01:39:28.531Z,101717.06
2022-08-25T01:42:19.605Z,101721.50
2022-08-25T01:44:49.353Z,101722.84
2022-08-25T01:47:17.913Z,101724.97
2022-08-25T01:49:46.001Z,101720.66
2022-08-25T01:52:21.363Z,101719.72
2022-08-25T01:54:49.652Z,101728.00
2022-08-25T01:57:17.717Z,101728.00
2022-08-25T01:59:45.978Z,101717.38
2022-08-25T02:02:14.117Z,101723.88
2022-08-25T02:04:44.290Z,101724.03
2022-08-25T02:07:13.062Z,101715.50
2022-08-25T02:09:44.170Z,101716.59
2022-08-25T02:12:12.877Z,101731.56
2022-08-25T02:14:40.929Z,101731.63
2022-08-25T02:17:11.385Z,101728.84
2022-08-25T02:19:39.432Z,101736.88
2022-08-25T02:22:07.582Z,101736.13
2022-08-25T02:24:36.013Z,101747.75
2022-08-25T02:27:05.939Z,101738.03
2022-08-25T02:29:34.356Z,101734.66
2022-08-25T02:32:02.985Z,101735.03
2022-08-25T02:34:31.325Z,101741.63
2022-08-25T02:36:59.397Z,101741.78
2022-08-25T02:39:27.413Z,101731.00
2022-08-25T02:41:55.665Z,101728.34
2022-08-25T02:44:25.198Z,101725.66
2022-08-25T02:46:53.229Z,101716.81
2022-08-25T02:49:21.202Z,101728.50
2022-08-25T02:51:49.294Z,101728.50
2022-08-25T02:54:17.344Z,101730.44
2022-08-25T02:56:45.390Z,101727.91
2022-08-25T02:59:13.590Z,101725.13
2022-08-25T03:01:42.969Z,101719.94
2022-08-25T03:04:11.053Z,101718.94
2022-08-25T03:06:39.668Z,101720.59
2022-08-25T03:09:08.655Z,101720.75
2022-08-25T03:11:38.265Z,101696.06
2022-08-25T03:14:06.537Z,101703.53
2022-08-25T03:16:34.945Z,101707.25
2022-08-25T03:19:05.667Z,101711.09
2022-08-25T03:21:33.859Z,101707.53
2022-08-25T03:24:02.201Z,101715.41
2022-08-25T03:26:47.665Z,101715.63
2022-08-25T03:29:15.881Z,101706.84
2022-08-25T03:31:44.726Z,101701.75
2022-08-25T03:34:14.520Z,101708.91
2022-08-25T03:36:42.588Z,101708.06
2022-08-25T03:39:10.826Z,101716.31
2022-08-25T03:41:38.915Z,101705.44
2022-08-25T03:44:09.103Z,101708.34
2022-08-25T03:46:42.116Z,101709.44
2022-08-25T03:49:12.273Z,101707.03
2022-08-25T03:51:45.502Z,101704.53
2022-08-25T03:54:14.102Z,101702.06
2022-08-25T03:56:43.135Z,101700.44
2022-08-25T03:59:11.521Z,101700.50
2022-08-25T04:01:40.950Z,101701.50
2022-08-25T04:04:10.836Z,101701.44
2022-08-25T04:06:40.538Z,101702.56
2022-08-25T04:09:10.684Z,101703.44
2022-08-25T04:11:38.781Z,101694.63
2022-08-25T04:14:06.835Z,101699.19
2022-08-25T04:16:36.703Z,101689.28
2022-08-25T04:19:09.293Z,101696.50
2022-08-25T04:21:38.929Z,101696.50
2022-08-25T04:24:10.172Z,101702.78
2022-08-25T04:26:40.943Z,101702.00
2022-08-25T04:29:10.917Z,101695.00
2022-08-25T04:31:41.399Z,101696.84
2022-08-25T04:34:14.328Z,101698.66
2022-08-25T04:36:58.494Z,101708.44
2022-08-25T04:39:27.959Z,101705.53
2022-08-25T04:41:56.022Z,101715.34
2022-08-25T04:44:24.064Z,101704.91
2022-08-25T04:46:52.096Z,101718.34
2022-08-25T04:49:20.362Z,101721.03
2022-08-25T04:51:48.451Z,101717.88
2022-08-25T04:54:21.516Z,101724.00
2022-08-25T04:56:54.624Z,101722.13
2022-08-25T04:59:30.312Z,101717.53
2022-08-25T05:02:02.230Z,101727.88
2022-08-25T05:04:31.133Z,101722.34
2022-08-25T05:06:59.661Z,101727.59
2022-08-25T05:09:28.367Z,101723.63
2022-08-25T05:11:57.775Z,101713.88
2022-08-25T05:14:27.007Z,101708.69
2022-08-25T05:16:56.278Z,101712.13
2022-08-25T05:19:25.225Z,101693.81
2022-08-25T05:21:53.896Z,101701.59
2022-08-25T05:24:23.127Z,101701.22
2022-08-25T05:26:51.198Z,101697.59
2022-08-25T05:29:20.574Z,101695.19
2022-08-25T05:31:50.768Z,101692.63
2022-08-25T05:34:19.963Z,101693.72
2022-08-25T05:36:48.321Z,101689.44
2022-08-25T05:39:16.391Z,101684.34
2022-08-25T05:41:44.506Z,101689.28
2022-08-25T05:44:15.950Z,101694.47
2022-08-25T05:46:47.405Z,101690.44
2022-08-25T05:49:15.492Z,101691.19
2022-08-25T05:51:43.689Z,101694.91
2022-08-25T05:54:11.800Z,101697.84
2022-08-25T05:56:40.273Z,101695.03
2022-08-25T05:59:09.551Z,101696.78
2022-08-25T06:01:57.189Z,101706.19
2022-08-25T06:04:26.632Z,101700.03
2022-08-25T06:06:55.664Z,101707.88
2022-08-25T06:09:24.567Z,101687.34
2022-08-25T06:11:54.891Z,101703.25
2022-08-25T06:14:23.940Z,101699.88
2022-08-25T06:16:52.498Z,101700.56
2022-08-25T06:19:21.235Z,101697.94
2022-08-25T06:21:50.861Z,101697.38
2022-08-25T06:24:19.558Z,101697.09
2022-08-25T06:26:47.610Z,101694.81
2022-08-25T06:29:15.687Z,101701.41
2022-08-25T06:31:44.772Z,101697.88
2022-08-25T06:34:13.588Z,101699.22
2022-08-25T06:36:42.045Z,101698.22
2022-08-25T06:39:12.067Z,101693.66
2022-08-25T06:41:40.205Z,101690.16
2022-08-25T06:44:08.244Z,101693.81
2022-08-25T06:46:37.206Z,101694.19
2022-08-25T06:49:06.589Z,101695.00
2022-08-25T06:51:35.960Z,101699.41
2022-08-25T06:54:05.204Z,101693.66
2022-08-25T06:56:35.841Z,101683.00
2022-08-25T06:59:05.314Z,101691.88
2022-08-25T07:01:34.685Z,101706.09
2022-08-25T07:04:10.447Z,101709.69
2022-08-25T07:06:43.159Z,101710.09
2022-08-25T07:09:12.578Z,101709.88
2022-08-25T07:11:42.919Z,101713.91
2022-08-25T07:14:12.859Z,101717.06
2022-08-25T07:16:48.534Z,101722.78
2022-08-25T07:19:20.661Z,101725.81
2022-08-25T07:21:51.700Z,101721.56
2022-08-25T07:24:20.381Z,101719.47
2022-08-25T07:26:50.127Z,101707.00
2022-08-25T07:29:20.446Z,101715.81
2022-08-25T07:32:00.713Z,101722.50
2022-08-25T07:34:51.821Z,101718.94
2022-08-25T07:40:13.230Z,101698.38
2022-08-25T07:42:43.129Z,101702.44
2022-08-25T07:45:12.602Z,101712.31
2022-08-25T07:47:40.827Z,101716.31
2022-08-25T07:50:12.721Z,101719.56
2022-08-25T07:52:42.856Z,101715.06
2022-08-25T07:55:11.633Z,101718.22
2022-08-25T07:57:40.554Z,101709.97
2022-08-25T08:00:11.790Z,101707.25
2022-08-25T08:02:40.055Z,101705.72
2022-08-25T08:05:09.590Z,101698.78
2022-08-25T08:07:43.303Z,101706.81
2022-08-25T08:13:03.316Z,101707.72
2022-08-25T08:15:32.909Z,101700.97
2022-08-25T08:18:02.037Z,101700.16
2022-08-25T08:20:43.062Z,101698.09
2022-08-25T08:23:11.644Z,101714.63
2022-08-25T08:25:39.735Z,101703.84
2022-08-25T08:28:08.154Z,101704.03
2022-08-25T08:30:39.576Z,101688.28
2022-08-25T08:33:21.682Z,101700.25
2022-08-25T08:35:56.150Z,101695.03
2022-08-25T08:38:27.135Z,101701.22
2022-08-25T08:41:23.323Z,101698.53
2022-08-25T08:44:00.334Z,101688.72
2022-08-25T08:46:41.330Z,101699.31
2022-08-25T08:49:22.994Z,101702.78
2022-08-25T08:52:00.426Z,101703.41
2022-08-25T08:54:35.192Z,101714.16
2022-08-25T08:57:10.462Z,101705.00
2022-08-25T08:59:48.809Z,101689.09
2022-08-25T09:02:38.593Z,101703.03
2022-08-25T09:05:12.337Z,101687.06
2022-08-25T09:07:47.688Z,101692.84
2022-08-25T09:10:17.104Z,101688.03
2022-08-25T09:12:51.272Z,101688.56
2022-08-25T09:15:51.835Z,101683.31
2022-08-25T09:18:32.207Z,101681.00
2022-08-25T09:21:10.490Z,101671.88
2022-08-25T09:24:04.767Z,101676.50
2022-08-25T09:26:38.912Z,101676.63
2022-08-25T09:29:16.340Z,101685.44
2022-08-25T09:31:45.998Z,101679.91
2022-08-25T09:34:22.436Z,101679.06
2022-08-25T09:36:52.970Z,101673.44
2022-08-25T09:39:22.815Z,101666.97
2022-08-25T09:41:56.025Z,101672.28
2022-08-25T09:44:26.722Z,101661.63
2022-08-25T09:47:02.038Z,101664.34
2022-08-25T09:49:37.580Z,101667.00
2022-08-25T09:52:34.654Z,101661.66
2022-08-25T09:55:25.350Z,101648.91
2022-08-25T09:57:55.836Z,101645.63
2022-08-25T10:00:28.535Z,101641.31
2022-08-25T10:03:22.847Z,101633.94
2022-08-25T10:06:04.109Z,101621.88
2022-08-25T10:08:35.597Z,101610.81
2022-08-25T10:11:08.804Z,101607.75
2022-08-25T10:13:41.973Z,101607.16
2022-08-25T10:16:20.484Z,101599.97
2022-08-25T10:19:08.113Z,101610.53
2022-08-25T10:21:39.604Z,101598.34
2022-08-25T10:24:08.574Z,101599.56
2022-08-25T10:26:53.154Z,101598.84
2022-08-25T10:29:50.315Z,101598.19
2022-08-25T10:32:27.868Z,101593.06
2022-08-25T10:34:59.557Z,101592.97
2022-08-25T10:37:40.194Z,101586.59
2022-08-25T10:40:16.942Z,101588.69
2022-08-25T10:43:07.424Z,101574.94
2022-08-25T10:45:46.076Z,101579.31
2022-08-25T10:48:43.892Z,101579.31
2022-08-25T10:51:28.448Z,101566.19
2022-08-25T10:54:07.652Z,101562.03
2022-08-25T10:56:41.372Z,101560.38
2022-08-25T10:59:23.561Z,101556.81
2022-08-25T11:02:38.209Z,101543.44
2022-08-25T11:05:13.770Z,101543.88
2022-08-25T11:07:47.057Z,101541.69
2022-08-25T11:10:19.913Z,101531.50
2022-08-25T11:12:54.186Z,101531.19
2022-08-25T11:15:27.210Z,101516.31
2022-08-25T11:17:59.090Z,101525.91
2022-08-25T11:20:34.764Z,101529.72
2022-08-25T11:23:12.804Z,101527.59
2022-08-25T11:25:45.993Z,101522.41
2022-08-25T11:28:19.833Z,101514.00
2022-08-25T11:30:52.417Z,101520.44
2022-08-25T11:33:21.175Z,101506.81
2022-08-25T11:35:54.569Z,101508.69
2022-08-25T11:38:38.205Z,101504.16
2022-08-25T11:41:22.791Z,101505.75
2022-08-25T11:44:06.740Z,101506.22
2022-08-25T11:46:52.800Z,101507.91
2022-08-25T11:49:44.474Z,101500.41
2022-08-25T11:52:45.853Z,101492.53
2022-08-25T11:55:17.285Z,101501.41
2022-08-25T11:58:13.673Z,101488.59
2022-08-25T12:00:46.006Z,101473.44
2022-08-25T12:03:51.015Z,101481.06
2022-08-25T12:06:26.604Z,101481.59
2022-08-25T12:09:13.186Z,101458.75
2022-08-25T12:11:48.810Z,101475.06
2022-08-25T12:14:37.828Z,101473.16
2022-08-25T12:17:18.941Z,101466.84
2022-08-25T12:19:53.714Z,101456.97
2022-08-25T12:22:51.496Z,101451.81
2022-08-25T12:25:47.331Z,101453.53
2022-08-25T12:28:39.133Z,101458.97
2022-08-25T12:31:18.813Z,101455.28
2022-08-25T12:34:05.188Z,101444.66
2022-08-25T12:36:35.474Z,101445.25
2022-08-25T12:39:25.089Z,101433.81
2022-08-25T12:41:57.875Z,101432.91
2022-08-25T12:44:43.968Z,101426.13
2022-08-25T12:47:32.199Z,101431.56
2022-08-25T12:50:36.420Z,101425.28
2022-08-25T12:53:15.170Z,101422.34
2022-08-25T12:55:52.661Z,101420.06
2022-08-25T12:58:20.711Z,101410.91
2022-08-25T13:01:33.132Z,101405.13
2022-08-25T13:04:45.692Z,101407.97
2022-08-25T13:07:31.511Z,101410.00
2022-08-25T13:10:29.781Z,101400.06
2022-08-25T13:13:05.895Z,101395.47
2022-08-25T13:15:40.164Z,101398.63
2022-08-25T13:18:21.222Z,101404.88
2022-08-25T13:20:52.404Z,101390.31
2022-08-25T13:23:26.409Z,101392.84
2022-08-25T13:25:58.519Z,101386.03
2022-08-25T13:28:32.081Z,101383.50
2022-08-25T13:31:08.074Z,101372.81
2022-08-25T13:33:37.620Z,101370.91
2022-08-25T13:36:24.860Z,101367.31
2022-08-25T13:38:54.257Z,101358.28
2022-08-25T13:41:28.960Z,101341.75
2022-08-25T13:44:02.628Z,101334.38
2022-08-25T13:46:31.899Z,101333.28
2022-08-25T13:49:06.052Z,101344.09
2022-08-25T13:51:34.720Z,101343.09
2022-08-25T13:54:06.884Z,101344.13
2022-08-25T13:56:40.568Z,101336.22
2022-08-25T13:59:24.328Z,101340.59
2022-08-25T14:01:54.373Z,101333.25
2022-08-25T14:04:33.851Z,101328.78
2022-08-25T14:07:26.360Z,101322.38
2022-08-25T14:10:00.044Z,101323.22
2022-08-25T14:12:33.044Z,101331.94
2022-08-25T14:15:04.590Z,101322.38
2022-08-25T14:17:40.110Z,101324.56
2022-08-25T14:20:19.185Z,101326.47
2022-08-25T14:22:47.606Z,101326.69
2022-08-25T14:25:17.188Z,101325.47
2022-08-25T14:28:16.279Z,101318.34
2022-08-25T14:30:37.027Z,101316.44
2022-08-25T14:33:06.714Z,101309.84
2022-08-25T14:35:35.465Z,101294.81
2022-08-25T14:38:08.474Z,101291.03
2022-08-25T14:40:39.525Z,101289.53
2022-08-25T14:43:09.685Z,101292.50
2022-08-25T14:45:40.999Z,101279.78
2022-08-25T14:48:11.564Z,101285.13
2022-08-25T14:50:41.014Z,101271.72
2022-08-25T14:53:11.485Z,101258.69
2022-08-25T14:55:41.017Z,101274.34
2022-08-25T14:58:09.491Z,101272.47
2022-08-25T15:00:41.533Z,101262.94
2022-08-25T15:03:13.272Z,101261.16
2022-08-25T15:05:41.737Z,101261.69
2022-08-25T15:08:32.934Z,101258.41
2022-08-25T15:11:08.934Z,101253.88
2022-08-25T15:13:37.691Z,101258.03
2022-08-25T15:16:06.327Z,101261.78
2022-08-25T15:18:34.386Z,101259.34
2022-08-25T15:21:02.867Z,101248.03
2022-08-25T15:23:31.187Z,101247.25
2022-08-25T15:25:59.203Z,101258.88
2022-08-25T15:28:28.666Z,101252.97
2022-08-25T15:30:56.713Z,101240.09
2022-08-25T15:33:24.752Z,101244.06
2022-08-25T15:35:52.881Z,101232.25
2022-08-25T15:38:21.373Z,101240.13
2022-08-25T15:40:50.409Z,101245.31
2022-08-25T15:43:18.455Z,101228.16
2022-08-25T15:45:49.688Z,101238.16
2022-08-25T15:48:19.038Z,101228.31
2022-08-25T15:50:47.793Z,101236.56
2022-08-25T15:53:15.809Z,101233.25
2022-08-25T15:55:44.992Z,101225.94
2022-08-25T15:58:13.146Z,101228.28
2022-08-25T16:00:41.376Z,101228.56
2022-08-25T16:03:11.769Z,101223.31
2022-08-25T16:05:47.954Z,101221.97
2022-08-25T16:08:19.754Z,101217.25
2022-08-25T16:10:48.063Z,101224.88
2022-08-25T16:13:17.790Z,101223.31
2022-08-25T16:15:53.128Z,101225.09
2022-08-25T16:18:24.334Z,101208.75
2022-08-25T16:20:52.967Z,101207.41
2022-08-25T16:23:22.186Z,101204.56
2022-08-25T16:25:51.845Z,101199.13
2022-08-25T16:28:20.646Z,101205.19
2022-08-25T16:30:53.213Z,101199.78
2022-08-25T16:33:22.231Z,101201.50
2022-08-25T16:35:51.631Z,101202.09
2022-08-25T16:38:19.705Z,101207.81
2022-08-25T16:40:48.095Z,101201.44
2022-08-25T16:43:17.645Z,101211.84
2022-08-25T16:45:46.203Z,101210.88
2022-08-25T16:48:14.572Z,101209.06
2022-08-25T16:50:42.631Z,101206.69
2022-08-25T16:53:29.477Z,101207.13
2022-08-25T16:56:05.075Z,101203.75
2022-08-25T16:58:36.329Z,101209.78
2022-08-25T17:01:07.022Z,101191.81
2022-08-25T17:03:37.601Z,101201.09
2022-08-25T17:06:06.767Z,101192.06
2022-08-25T17:08:37.838Z,101194.09
2022-08-25T17:11:08.804Z,101198.22
2022-08-25T17:13:37.919Z,101193.28
2022-08-25T17:16:07.140Z,101191.72
2022-08-25T17:18:35.312Z,101184.72
2022-08-25T17:21:07.370Z,101173.03
2022-08-25T17:23:38.581Z,101191.84
2022-08-25T17:26:12.984Z,101199.06
2022-08-25T17:28:43.296Z,101203.19
2022-08-25T17:31:13.942Z,101195.38
2022-08-25T17:33:42.725Z,101193.69
2022-08-25T17:36:15.276Z,101192.09
2022-08-25T17:38:46.513Z,101198.69
2022-08-25T17:41:15.258Z,101201.19
2022-08-25T17:43:49.580Z,101194.00
2022-08-25T17:46:18.296Z,101187.59
2022-08-25T17:48:47.192Z,101196.16
2022-08-25T17:51:15.794Z,101200.91
2022-08-25T17:53:44.743Z,101191.38
2022-08-25T17:56:17.480Z,101194.00
2022-08-25T17:58:47.172Z,101205.88
2022-08-25T18:01:20.122Z,101199.19
2022-08-25T18:03:50.576Z,101211.44
2022-08-25T18:06:19.036Z,101206.25
2022-08-25T18:08:51.710Z,101206.47
2022-08-25T18:11:24.570Z,101209.22
2022-08-25T18:13:53.767Z,101204.56
2022-08-25T18:16:22.968Z,101211.63
2022-08-25T18:18:51.777Z,101206.66
2022-08-25T18:21:23.147Z,101210.41
2022-08-25T18:23:51.332Z,101213.91
2022-08-25T18:26:21.859Z,101210.44
2022-08-25T18:28:54.316Z,101214.94
2022-08-25T18:31:22.717Z,101210.22
2022-08-25T18:33:52.309Z,101214.97
2022-08-25T18:36:21.453Z,101179.94
2022-08-25T18:39:07.110Z,101211.28
2022-08-25T18:41:38.152Z,101218.09
2022-08-25T18:44:07.678Z,101219.03
2022-08-25T18:46:36.256Z,101218.44
2022-08-25T18:49:05.297Z,101222.41
2022-08-25T18:51:33.480Z,101217.44
2022-08-25T18:54:01.643Z,101207.28
2022-08-25T18:56:29.879Z,101206.53
2022-08-25T18:58:58.814Z,101214.06
2022-08-25T19:01:28.632Z,101211.47
2022-08-25T19:03:56.955Z,101212.94
2022-08-25T19:06:25.041Z,101205.44
2022-08-25T19:08:53.456Z,101216.56
2022-08-25T19:11:22.486Z,101212.59
2022-08-25T19:13:51.219Z,101206.16
2022-08-25T19:16:34.403Z,101211.09
2022-08-25T19:19:03.632Z,101218.22
2022-08-25T19:21:31.943Z,101212.13
2022-08-25T19:24:01.096Z,101217.44
2022-08-25T19:26:31.681Z,101216.16
2022-08-25T19:28:59.770Z,101211.44
2022-08-25T19:31:33.255Z,101215.13
2022-08-25T19:34:03.241Z,101211.75
2022-08-25T19:36:31.814Z,101219.31
2022-08-25T19:39:01.637Z,101218.75
2022-08-25T19:41:32.101Z,101211.88
2022-08-25T19:44:02.796Z,101222.75
2022-08-25T19:46:35.574Z,101224.09
2022-08-25T19:49:08.768Z,101216.28
2022-08-25T19:51:39.104Z,101217.06
2022-08-25T19:54:11.878Z,101223.69
2022-08-25T19:56:53.821Z,101217.50
2022-08-25T19:59:24.645Z,101211.84
2022-08-25T20:01:52.790Z,101215.78
2022-08-25T20:04:24.480Z,101211.91
2022-08-25T20:06:53.213Z,101211.69
2022-08-25T20:09:39.031Z,101221.16
2022-08-25T20:12:10.585Z,101222.38
2022-08-25T20:14:38.860Z,101218.94
2022-08-25T20:17:14.341Z,101216.22
2022-08-25T20:19:44.263Z,101216.44
2022-08-25T20:22:17.675Z,101215.56
2022-08-25T20:24:51.092Z,101212.31
2022-08-25T20:27:28.919Z,101215.13
2022-08-25T20:29:57.222Z,101211.88
2022-08-25T20:32:25.268Z,101214.78
2022-08-25T20:34:56.878Z,101220.53
2022-08-25T20:37:25.883Z,101219.44
2022-08-25T20:39:54.878Z,101219.75
2022-08-25T20:42:23.096Z,101210.53
2022-08-25T20:44:51.182Z,101210.75
2022-08-25T20:47:20.966Z,101213.34
2022-08-25T20:49:50.359Z,101214.25
2022-08-25T20:52:21.276Z,101213.69
2022-08-25T20:54:51.250Z,101214.41
2022-08-25T20:57:25.954Z,101216.06
2022-08-25T20:59:55.524Z,101212.59
2022-08-25T21:02:24.122Z,101223.94
2022-08-25T21:04:52.426Z,101215.91
2022-08-25T21:07:23.718Z,101213.31
2022-08-25T21:09:52.551Z,101212.56
2022-08-25T21:12:21.549Z,101217.63
2022-08-25T21:14:50.656Z,101219.50
2022-08-25T21:17:19.513Z,101216.69
2022-08-25T21:22:22.479Z,101218.50
2022-08-25T21:24:51.357Z,101216.19
2022-08-25T21:27:19.756Z,101216.97
2022-08-25T21:29:54.561Z,101208.94
2022-08-25T21:32:24.787Z,101216.72
2022-08-25T21:34:54.674Z,101218.56
2022-08-25T21:37:25.192Z,101217.78
2022-08-25T21:39:54.337Z,101217.22
2022-08-25T21:42:24.927Z,101216.41
2022-08-25T21:44:53.869Z,101220.31
2022-08-25T21:47:23.299Z,101220.41
2022-08-25T21:49:51.694Z,101220.13
2022-08-25T21:52:20.855Z,101218.16
2022-08-25T21:54:50.308Z,101216.06
2022-08-25T21:57:23.643Z,101223.69
2022-08-25T21:59:51.935Z,101217.59
2022-08-25T22:02:22.554Z,101221.28
2022-08-25T22:04:53.429Z,101220.41
2022-08-25T22:07:24.728Z,101207.63
2022-08-25T22:09:54.942Z,101216.25
2022-08-25T22:12:23.416Z,101211.50
2022-08-25T22:14:52.990Z,101215.06
2022-08-25T22:17:24.430Z,101211.72
2022-08-25T22:19:54.108Z,101218.78
2022-08-25T22:22:22.938Z,101207.31
2022-08-25T22:24:55.848Z,101209.84
2022-08-25T22:27:23.947Z,101205.28
2022-08-25T22:29:52.814Z,101208.88
2022-08-25T22:32:21.459Z,101203.47
2022-08-25T22:34:49.641Z,101206.94
2022-08-25T22:37:18.138Z,101204.44
2022-08-25T22:39:47.036Z,101199.84
2022-08-25T22:42:16.579Z,101200.75
2022-08-25T22:44:44.574Z,101199.78
2022-08-25T22:47:12.623Z,101196.19
2022-08-25T22:49:40.792Z,101190.00
2022-08-25T22:52:12.875Z,101193.19
2022-08-25T22:54:42.118Z,101199.72
2022-08-25T22:57:11.477Z,101160.56
2022-08-25T22:59:41.054Z,101200.78
2022-08-25T23:02:09.450Z,101197.38
2022-08-25T23:04:41.563Z,101193.59
2022-08-25T23:07:12.653Z,101192.38
2022-08-25T23:09:40.724Z,101200.19
2022-08-25T23:12:09.768Z,101194.66
2022-08-25T23:14:42.294Z,101160.22
2022-08-25T23:17:13.992Z,101195.59
2022-08-25T23:19:42.099Z,101182.59
2022-08-25T23:22:09.475Z,101186.31
2022-08-25T23:24:42.586Z,101142.13
2022-08-25T23:27:12.678Z,101177.81
2022-08-25T23:29:43.493Z,101174.22
2022-08-25T23:32:14.351Z,101172.50
2022-08-25T23:34:46.700Z,101166.78
2022-08-25T23:37:18.774Z,101164.66
2022-08-25T23:39:49.481Z,101169.88
2022-08-25T23:42:19.657Z,101163.78
2022-08-25T23:44:48.237Z,101166.75
2022-08-25T23:47:18.712Z,101157.88
2022-08-25T23:49:48.115Z,101157.66
2022-08-25T23:52:17.486Z,101156.00
2022-08-25T23:54:46.349Z,101157.09
2022-08-25T23:57:14.801Z,101150.59
2022-08-25T23:59:43.273Z,101148.63
